Latest Weather Observations for West Roebuck

IDW60801

Issued at 6:03 am WST Thursday 19 January 2017 (issued every 30 minutes, with the page automatically refreshed every 10 minutes)

About weather observations | Map of weather stations | Latest weather observations for WA | Other Formats
Station Details ID: 003096 Name: WEST ROEBUCK Lat: -17.90 Lon: 122.31 Height: 32.0 m
Data from the previous 72 hours. | See also: Recent months at West Roebuck
Date/Time
WST
Temp
°C
App
Temp
°C
Dew
Point
°C
Rel
Hum
%
Delta-T
°C
Wind Press
QNH
hPa
Press
MSL
hPa
Rain since
9am
mm
Dir  Spd
km/h
Gust
km/h
Spd
kts
Gust
kts
19/06:00am 25.8 - - - - NNW 7 9 4 5 - - 34.0
19/05:30am 25.9 - - - - N 6 9 3 5 - - 34.0
19/05:00am 25.9 - - - - N 7 9 4 5 - - 34.0
19/04:30am 25.9 - - - - N 6 9 3 5 - - 34.0
19/04:00am 26.3 - - - - WNW 9 13 5 7 - - 34.0
19/03:30am 26.1 - - - - WNW 7 9 4 5 - - 34.0
19/03:00am 26.2 - - - - WNW 7 9 4 5 - - 34.0
19/02:30am 26.2 - - - - WNW 9 11 5 6 - - 34.0
19/02:00am 26.0 - - - - W 9 15 5 8 - - 34.0
19/01:30am 26.0 - - - - NW 7 11 4 6 - - 34.0
19/01:00am 26.0 - - - - WNW 13 20 7 11 - - 34.0
19/12:30am 25.8 - - - - W 13 22 7 12 - - 33.8
19/12:00am 25.5 - - - - WSW 11 17 6 9 - - 33.4
 
Date/Time
WST
Temp
°C
App
Temp
°C
Dew
Point
°C
Rel
Hum
%
Delta-T
°C
Wind Press
QNH
hPa
Press
MSL
hPa
Rain since
9am
mm
Dir  Spd
km/h
Gust
km/h
Spd
kts
Gust
kts
18/11:30pm 25.7 - - - - WSW 13 19 7 10 - - 33.4
18/11:00pm 25.7 - - - - W 11 28 6 15 - - 27.4
18/10:30pm 26.5 - - - - WNW 9 13 5 7 - - 8.6
18/10:00pm 26.4 - - - - WNW 15 28 8 15 - - 8.6
18/09:30pm 26.6 - - - - W 13 19 7 10 - - 8.4
18/09:00pm 28.1 - - - - WNW 13 20 7 11 - - 7.4
18/08:30pm 28.0 - - - - WNW 15 22 8 12 - - 7.4
18/08:00pm 27.8 - - - - WNW 13 19 7 10 - - 7.4
18/07:30pm 27.7 - - - - WNW 13 20 7 11 - - 7.4
18/07:00pm 27.6 - - - - WNW 11 17 6 9 - - 7.4
18/06:30pm 27.6 - - - - NW 9 17 5 9 - - 7.4
18/06:00pm 28.2 - - - - NW 13 17 7 9 - - 7.4
18/05:30pm 28.4 - - - - WNW 11 17 6 9 - - 7.4
18/05:00pm 28.6 - - - - WNW 13 19 7 10 - - 7.4
18/04:30pm 28.8 - - - - NW 11 17 6 9 - - 7.4
18/04:00pm 28.8 - - - - WNW 13 20 7 11 - - 7.4
18/03:30pm 28.9 - - - - WNW 13 20 7 11 - - 7.4
18/03:00pm 28.9 - - - - WNW 13 20 7 11 - - 7.4
18/02:30pm 28.9 - - - - WNW 17 20 9 11 - - 7.4
18/02:00pm 28.7 - - - - WNW 13 26 7 14 - - 7.4
18/01:30pm 28.7 - - - - WNW 9 15 5 8 - - 7.4
18/01:00pm 28.4 - - - - WNW 11 19 6 10 - - 7.4
18/12:30pm 27.9 - - - - W 7 11 4 6 - - 7.4
18/12:00pm 27.5 - - - - CALM 0 0 0 0 - - 7.2
18/11:30am 26.6 - - - - CALM 0 0 0 0 - - 6.6
18/11:00am 26.1 - - - - W 9 13 5 7 - - 6.0
18/10:30am 27.2 - - - - WNW 6 9 3 5 - - 3.2
18/10:00am 26.7 - - - - WNW 6 9 3 5 - - 3.0
18/09:30am 26.5 - - - - W 7 9 4 5 - - 1.4
18/09:00am 26.4 - - - - W 9 15 5 8 - - 9.0
18/08:30am 25.9 - - - - NW 2 7 1 4 - - 7.8
18/08:00am 25.4 - - - - N 7 9 4 5 - - 7.4
18/07:30am 24.8 - - - - N 9 11 5 6 - - 7.0
18/07:00am 26.1 - - - - CALM 0 0 0 0 - - 6.4
18/06:30am 25.6 - - - - WSW 2 13 1 7 - - 4.2
18/06:00am 25.3 - - - - W 7 13 4 7 - - 4.2
18/05:30am 26.1 - - - - W 19 26 10 14 - - 2.4
18/05:00am 26.7 - - - - WSW 9 13 5 7 - - 1.6
18/04:30am 26.8 - - - - W 9 13 5 7 - - 1.0
18/04:00am 26.7 - - - - WSW 11 17 6 9 - - 0.8
18/03:30am 27.9 - - - - W 15 22 8 12 - - 0.4
18/03:00am 27.8 - - - - W 11 17 6 9 - - 0.4
18/02:30am 27.8 - - - - W 13 20 7 11 - - 0.4
18/02:00am 27.5 - - - - WNW 11 15 6 8 - - 0.4
18/01:30am 27.5 - - - - W 11 17 6 9 - - 0.4
18/01:00am 27.7 - - - - W 13 17 7 9 - - 0.4
18/12:30am 27.5 - - - - W 9 13 5 7 - - 0.4
18/12:00am 27.5 - - - - W 9 15 5 8 - - 0.4
 
Date/Time
WST
Temp
°C
App
Temp
°C
Dew
Point
°C
Rel
Hum
%
Delta-T
°C
Wind Press
QNH
hPa
Press
MSL
hPa
Rain since
9am
mm
Dir  Spd
km/h
Gust
km/h
Spd
kts
Gust
kts
17/11:30pm 27.6 - - - - WNW 7 11 4 6 - - 0.4
17/11:00pm 27.6 - - - - WNW 7 9 4 5 - - 0.4
17/10:30pm 27.6 - - - - WNW 7 9 4 5 - - 0.4
17/10:00pm 27.6 - - - - WNW 7 9 4 5 - - 0.4
17/09:30pm 27.5 - - - - WNW 9 13 5 7 - - 0.4
17/09:00pm 27.8 - - - - CALM 0 6 0 3 - - 0.2
17/08:30pm 28.0 - - - - WNW 2 6 1 3 - - 0.2
17/08:00pm 28.2 - - - - WNW 7 11 4 6 - - 0.0
17/07:30pm 28.3 - - - - NNW 6 9 3 5 - - 0.0
17/07:00pm 28.4 - - - - WNW 6 9 3 5 - - 0.0
17/06:30pm 28.4 - - - - NNW 9 13 5 7 - - 0.0
17/06:00pm 28.7 - - - - N 6 9 3 5 - - 0.0
17/05:30pm 29.0 - - - - NW 6 9 3 5 - - 0.0
17/05:00pm 29.4 - - - - WNW 9 11 5 6 - - 0.0
17/04:30pm 29.5 - - - - WNW 11 17 6 9 - - 0.0
17/04:00pm 29.6 - - - - W 13 20 7 11 - - 0.0
17/03:30pm 29.8 - - - - W 19 26 10 14 - - 0.0
17/03:00pm 30.3 - - - - W 20 28 11 15 - - 0.0
17/02:30pm 31.5 - - - - W 20 33 11 18 - - 0.0
17/02:00pm 32.8 - - - - W 22 33 12 18 - - 0.0
17/01:30pm 32.9 - - - - W 22 30 12 16 - - 0.0
17/01:00pm 33.7 - - - - W 22 33 12 18 - - 0.0
17/12:30pm 33.4 - - - - W 19 28 10 15 - - 0.0
17/12:00pm 33.2 - - - - W 20 28 11 15 - - 0.0
17/11:30am 32.7 - - - - W 19 26 10 14 - - 0.0
17/11:00am 32.6 - - - - W 17 26 9 14 - - 0.0
17/10:30am 31.8 - - - - WNW 15 24 8 13 - - 0.0
17/10:00am 31.2 - - - - WNW 15 22 8 12 - - 0.0
17/09:30am 30.7 - - - - WNW 13 22 7 12 - - 0.0
17/09:00am 30.6 - - - - WNW 17 24 9 13 - - 0.0
17/08:30am 30.3 - - - - NW 19 26 10 14 - - 0.0
17/08:00am 30.6 - - - - NW 17 26 9 14 - - 0.0
17/07:30am 29.8 - - - - NW 11 17 6 9 - - 0.0
17/07:00am 28.4 - - - - NNW 7 13 4 7 - - 0.0
17/06:30am 27.3 - - - - N 4 7 2 4 - - 0.0
17/06:00am 26.6 - - - - N 6 7 3 4 - - 0.0
17/05:30am 26.5 - - - - N 7 9 4 5 - - 0.0
17/05:00am 26.4 - - - - N 7 9 4 5 - - 0.0
17/04:30am 26.4 - - - - NNE 6 7 3 4 - - 0.0
17/04:00am 26.4 - - - - NNE 6 9 3 5 - - 0.0
17/03:30am 26.4 - - - - NE 6 7 3 4 - - 0.0
17/03:00am 26.5 - - - - NE 6 6 3 3 - - 0.0
17/02:30am 26.6 - - - - NE 6 7 3 4 - - 0.0
17/02:00am 26.4 - - - - NNE 6 7 3 4 - - 0.0
17/01:30am 26.5 - - - - NNE 7 7 4 4 - - 0.0
17/01:00am 26.7 - - - - N 6 7 3 4 - - 0.0
17/12:30am 26.9 - - - - N 6 7 3 4 - - 0.0
17/12:00am 26.8 - - - - N 7 9 4 5 - - 0.0
 
Date/Time
WST
Temp
°C
App
Temp
°C
Dew
Point
°C
Rel
Hum
%
Delta-T
°C
Wind Press
QNH
hPa
Press
MSL
hPa
Rain since
9am
mm
Dir  Spd
km/h
Gust
km/h
Spd
kts
Gust
kts
16/11:30pm 27.2 - - - - CALM 0 0 0 0 - - 0.0
16/11:00pm 27.5 - - - - NNE 6 7 3 4 - - 0.0
16/10:30pm 27.7 - - - - NNW 9 11 5 6 - - 0.0
16/10:00pm 27.9 - - - - NNW 9 13 5 7 - - 0.0
16/09:30pm 28.2 - - - - NNW 9 13 5 7 - - 0.0
16/09:00pm 28.5 - - - - NNW 9 11 5 6 - - 0.0
16/08:30pm 28.7 - - - - NNW 11 17 6 9 - - 0.0
16/08:00pm 28.8 - - - - NNW 9 15 5 8 - - 0.0
16/07:30pm 29.0 - - - - NW 13 20 7 11 - - 0.0
16/07:00pm 29.2 - - - - NW 15 22 8 12 - - 0.0
16/06:30pm 29.5 - - - - NW 17 26 9 14 - - 0.0
16/06:00pm 30.2 - - - - NW 19 30 10 16 - - 0.0
16/05:30pm 30.9 - - - - WNW 19 28 10 15 - - 0.0
16/05:00pm 31.6 - - - - NW 20 32 11 17 - - 0.0
16/04:30pm 32.1 - - - - WNW 22 32 12 17 - - 0.0
16/04:00pm 32.0 - - - - WNW 22 35 12 19 - - 0.0
16/03:30pm 32.2 - - - - WNW 19 28 10 15 - - 0.0
16/03:00pm 32.6 - - - - WNW 22 32 12 17 - - 0.0
16/02:30pm 33.5 - - - - W 20 30 11 16 - - 0.0
16/02:00pm 34.2 - - - - WNW 17 30 9 16 - - 0.0
16/01:30pm 33.3 - - - - WNW 20 26 11 14 - - 0.0
16/01:00pm 33.0 - - - - WNW 19 26 10 14 - - 0.0
16/12:30pm 31.4 - - - - WNW 17 26 9 14 - - 0.0
16/12:00pm 29.5 - - - - ENE 13 20 7 11 - - 0.0
16/11:30am 31.6 - - - - WNW 19 32 10 17 - - 0.0
16/11:00am 32.9 - - - - WNW 15 22 8 12 - - 0.0
16/10:30am 32.0 - - - - WNW 15 24 8 13 - - 0.0
16/10:00am 32.5 - - - - W 15 24 8 13 - - 0.0
16/09:30am 31.5 - - - - WNW 17 24 9 13 - - 0.0
16/09:00am 31.3 - - - - WNW 13 24 7 13 - - 0.0
16/08:30am 30.6 - - - - WNW 17 22 9 12 - - 0.0
16/08:00am 30.4 - - - - NW 11 20 6 11 - - 0.0
16/07:30am 28.5 - - - - NW 7 9 4 5 - - 0.0
16/07:00am 27.4 - - - - N 6 7 3 4 - - 0.0
16/06:30am 26.6 - - - - N 6 9 3 5 - - 0.0

Other Formats:

Comma delimited format used in spreadsheet applications
http://www.bom.gov.au/fwo/IDW60801/IDW60801.95204.axf

JavaScript Object Notation format (JSON) in row-major order
http://www.bom.gov.au/fwo/IDW60801/IDW60801.95204.json